CMB831 Details

Departure: Norfolk Naval Station (Chambers Field) (KNGU)
Arrival: Keflavík International Airport (BIKF) at N/A
Route: SBY J79 JFK J37 ALB J563 HO PORGY 5950N N6140 EPENI ELDIS ELDIS2M
Notes: USTRANSCOM CONTRACT FLIGHT


Current Weather Information
KNGU 191659Z 22006KT 10SM FEW040 FEW300 34/23 A3004 RMK AO2 SLP170 T03390233
BIKF 191700Z 36010KT 310V030 CAVOK 13/04 Q1008